• Join FlightAware (Why Join?)
  • Login
  • US Flag 
02:54PM EDT


 

Airport Tracker/Info


-or-


 

Live Flight TrackerFlight Track Log ✈ UAL906 ✈ 08-Jun-2013 ✈ EDDF / FRA - KORD

Flight Track Log - Related Links

Times and Time Zones

All times are in EDT time to prevent confusion due to time zone crossing. See the UAL906 flight status page for this flight to view local times or setup timezone preferences in your user account.

Time Position Orientation Groundspeed Altitude Reporting Facility
EDT Latitude Longitude Course Direction KTS MPH feet Rate Location/Type
07:30AM 50.0480 8.5700 244° Southwest 11 13  Level FlightAware
07:31AM 50.0470 8.5700 180° South 11 13  Level FlightAware
07:32AM 50.0470 8.5690 270° West 12 14  Level FlightAware
07:35AM 50.1876 8.1998 300° West  Level FlightAware Approximate
07:36AM 50.2596 8.0475 308° West  Level FlightAware Approximate
07:37AM 50.3289 7.8923 308° West  Level FlightAware Approximate
07:38AM 50.4009 7.7393 305° West  Level FlightAware Approximate
07:38AM 50.0460 8.5690 305° West 12 14  Level FlightAware
07:39AM 50.0450 8.5690 180° South 16 18  Level FlightAware
07:39AM 50.0450 8.5680 270° West 15 17  Level FlightAware
07:40AM 50.0430 8.5680 180° South 22 25  Level FlightAware
07:40AM 50.0420 8.5670 213° Southwest 25 29  Level FlightAware
07:41AM 50.0420 8.5660 270° West 24 28  Level FlightAware
07:41AM 50.0420 8.5640 270° West 24 28  Level FlightAware
07:42AM 50.0410 8.5620 232° Southwest 26 30  Level FlightAware
07:42AM 50.0410 8.5600 270° West 28 32  Level FlightAware
07:43AM 50.0400 8.5580 232° Southwest 34 39  Level FlightAware
07:43AM 50.0390 8.5550 243° Southwest 31 36  Level FlightAware
07:44AM 50.0390 8.5520 270° West 16 18  Level FlightAware
07:44AM 50.0380 8.5500 232° Southwest 33 38  Level FlightAware
07:45AM 50.0370 8.5470 243° Southwest 17 20  Level FlightAware
07:45AM 50.0370 8.5440 270° West 32 37  Level FlightAware
07:46AM 50.0360 8.5420 232° Southwest 28 32  Level FlightAware
07:46AM 50.0360 8.5400 270° West 26 30 60 Level FlightAware
07:46AM 50.0350 8.5380 232° Southwest 27 31 60 Level FlightAware
07:47AM 50.0350 8.5360 270° West 23 26 60 Level FlightAware
07:47AM 50.0350 8.5350 270° West 19 22 60 Level FlightAware
07:47AM 50.0340 8.5350 180° South 18 21 60 Level FlightAware
07:48AM 50.0340 8.5340 270° West 19 22 60 Level FlightAware
07:48AM 50.0330 8.5360 128° Southeast 25 29 60 Level FlightAware
07:49AM 50.0330 8.5370 90° East 60 Level FlightAware
07:51AM 50.1571 8.2811 300° West  Level FlightAware Approximate
07:51AM 50.0330 8.5380 300° West 34 39  Level FlightAware
07:52AM 50.0360 8.5500 69° East 125 144 540 Level FlightAware
07:52AM 50.0420 8.5730 68° East 176 203 400 1,800 Climbing FlightAware
07:52AM 50.0490 8.6030 70° East 178 205 1,400 2,220 Climbing FlightAware
07:53AM 50.0550 8.6290 70° East 180 207 2,200 1,860 Climbing FlightAware
07:53AM 50.0640 8.6690 71° East 186 214 3,100 1,620 Climbing FlightAware
07:54AM 50.0690 8.6900 70° East 194 223 3,500 1,320 Climbing FlightAware
07:54AM 50.0810 8.7260 63° Northeast 219 252 4,100 1,200 Climbing FlightAware
07:54AM 50.0920 8.7380 35° Northeast 235 270 4,300 1,020 Climbing FlightAware
07:54AM 50.1090 8.7460 17° North 252 290 4,600 1,500 Climbing FlightAware
07:55AM 50.1430 8.7600 15° North 271 312 5,400 1,980 Climbing FlightAware
07:55AM 50.1750 8.7790 21° North 275 316 6,500 2,340 Climbing FlightAware
07:56AM 50.2100 8.7960 17° North 283 326 7,600 2,220 Climbing FlightAware
07:56AM 50.2420 8.7830 345° North 290 334 8,500 2,100 Climbing FlightAware
07:57AM 50.2570 8.7610 317° Northwest 293 337 9,000 2,160 Climbing FlightAware
07:57AM 50.2670 8.7310 298° West 297 342 9,600 2,160 Climbing FlightAware
07:57AM 50.2870 8.6460 290° West 302 348 11,100 2,040 Climbing FlightAware
07:58AM 50.3090 8.5560 291° West 307 353 12,600 1,740 Climbing FlightAware
07:59AM 50.3310 8.4710 292° West 323 372 13,600 1,380 Climbing FlightAware
08:00AM 50.3520 8.3820 290° West 345 397 14,500 1,320 Climbing FlightAware
08:00AM 50.3760 8.2840 291° West 364 419 15,400 1,200 Climbing FlightAware
08:01AM 50.4020 8.1810 292° West 376 433 16,200 1,020 Climbing FlightAware
08:02AM 50.4300 8.0660 291° West 401 461 17,000 1,260 Climbing FlightAware
08:02AM 50.4540 7.9650 291° West 413 475 17,900 1,620 Climbing FlightAware
08:03AM 50.4870 7.8310 291° West 419 482 19,200 1,620 Climbing FlightAware
08:04AM 50.5120 7.7220 290° West 422 486 20,200 1,380 Climbing FlightAware
08:04AM 50.5510 7.5890 295° West 432 497 21,200 1,380 Climbing FlightAware
08:05AM 50.6120 7.4910 314° West 433 498 22,300 1,500 Climbing FlightAware
08:06AM 50.6650 7.4110 316° Northwest 436 502 23,200 1,320 Climbing FlightAware
08:06AM 50.7300 7.3350 324° Northwest 449 517 24,000 1,260 Climbing FlightAware
08:07AM 50.8210 7.2500 329° Northwest 448 516 25,100 1,260 Climbing FlightAware
08:08AM 50.8920 7.1830 329° Northwest 452 520 25,900 1,200 Climbing FlightAware
08:09AM 50.9630 7.1090 327° Northwest 460 529 26,700 1,200 Climbing FlightAware
08:09AM 51.0200 7.0090 312° West 462 532 27,500 900 Climbing FlightAware
08:10AM 51.0660 6.9260 311° West 465 535 28,000 720 Climbing FlightAware
08:11AM 51.1280 6.8180 312° West 471 542 28,800 1,020 Climbing FlightAware
08:12AM 51.2430 6.6010 310° West 480 552 30,000 780 Climbing FlightAware
08:13AM 51.2980 6.4950 310° West 481 554 30,000 480 Level FlightAware
08:13AM 51.3580 6.3800 310° West 477 549 30,700 1,200 Climbing FlightAware
08:14AM 51.4170 6.2650 309° West 471 542 31,700 1,200 Climbing FlightAware
08:15AM 51.4770 6.1470 309° West 470 541 32,500 1,020 Climbing FlightAware
08:15AM 51.5360 6.0290 309° West 468 539 33,200 960 Climbing FlightAware
08:16AM 51.5910 5.9220 310° West 465 535 33,900 600 Climbing FlightAware
08:17AM 51.6450 5.8150 309° West 465 535 34,000 60 Climbing FlightAware
08:17AM 51.7030 5.6990 309° West 464 534 34,000  Level FlightAware
08:17AM 51.6987 5.6874 309° West 1 1 34,000  Level FlightAware UK
08:18AM 51.7420 5.6103 309° West 482 555 34,000  Level FlightAware UK
08:18AM 51.7570 5.5910 309° West 463 533 34,000  Level FlightAware
08:19AM 51.8170 5.4690 309° West 462 532 34,000  Level FlightAware
08:20AM 51.8650 5.3720 309° West 461 531 34,000 -120 Level FlightAware
08:20AM 51.9064 5.2914 309° West 480 552 33,900  Descending FlightAware UK
08:20AM 51.9250 5.2500 309° West 459 528 34,000  Climbing FlightAware
08:21AM 51.9521 5.1927 309° West 482 555 33,900  Descending FlightAware UK
08:21AM 51.9830 5.1330 309° West 459 528 34,000  Climbing FlightAware
08:21AM 52.0080 5.0804 309° West 480 552 33,900  Descending FlightAware UK
08:22AM 52.0350 5.0260 309° West 458 527 34,000  Climbing FlightAware
08:22AM 52.0873 4.9192 309° West 478 550 33,900  Descending FlightAware UK
08:22AM 52.0960 4.9000 309° West 457 526 34,000 120 Climbing FlightAware
08:23AM 52.1480 4.7920 308° West 457 526 34,000 -120 Level FlightAware
08:23AM 52.1725 4.7402 308° West 478 550 33,900  Descending FlightAware UK
08:24AM 52.2030 4.6790 308° West 458 527 34,000  Climbing FlightAware
08:24AM 52.2443 4.5951 308° West 476 548 33,900  Descending FlightAware UK
08:24AM 52.2580 4.5630 308° West 458 527 34,000 120 Climbing FlightAware
08:25AM 52.3067 4.4643 308° West 480 552 34,000  Level FlightAware UK
08:25AM 52.3090 4.4570 308° West 458 527 34,000  Level FlightAware
08:26AM 52.3660 4.3370 308° West 457 526 34,000  Level FlightAware
08:27AM 52.4170 4.2290 308° West 457 526 34,000  Level FlightAware
08:27AM 52.4710 4.1140 308° West 456 525 34,000  Level FlightAware
08:28AM 52.5250 3.9990 308° West 455 524 34,000 -120 Level FlightAware
08:28AM 52.5539 3.9392 308° West 476 548 33,900  Descending FlightAware UK
08:29AM 52.5840 3.8720 308° West 456 525 34,000 60 Climbing FlightAware
08:29AM 52.6280 3.7770 308° West 458 527 34,000  Level FlightAware
08:29AM 52.6379 3.7578 308° West 478 550 34,000  Level FlightAware UK
08:30AM 52.6890 3.6460 308° West 458 527 34,000  Level FlightAware
08:31AM 52.7430 3.5280 307° West 457 526 34,000  Level FlightAware
08:31AM 52.7681 3.4752 307° West 478 550 34,000  Level FlightAware UK
08:31AM 52.7940 3.4170 307° West 457 526 34,000  Level FlightAware
08:32AM 52.8365 3.3256 307° West 478 550 34,000  Level FlightAware UK
08:32AM 52.8520 3.2880 307° West 457 526 34,000  Level FlightAware
08:33AM 52.8980 3.1730 307° West 459 528 34,000 -180 Level FlightAware
08:33AM 52.9000 3.1691 307° West 472 543 33,900  Descending FlightAware UK
08:34AM 52.9490 3.0450 304° West 460 529 34,000 60 Climbing FlightAware
08:34AM 52.9970 2.9280 304° West 461 531 34,000  Level FlightAware
08:35AM 53.0420 2.8182 304° West 478 550 34,000  Level FlightAware UK
08:35AM 53.0490 2.7990 304° West 462 532 34,000  Level FlightAware
08:36AM 53.1010 2.6700 304° West 462 532 34,000  Level FlightAware
08:36AM 53.1418 2.5708 304° West 478 550 34,000  Level FlightAware UK
08:36AM 53.1480 2.5530 304° West 460 529 34,000  Level FlightAware
08:37AM 53.1766 2.4808 304° West 480 552 34,000  Level FlightAware UK
08:37AM 53.1990 2.4250 304° West 460 529 34,000  Level FlightAware
08:38AM 53.2460 2.3070 304° West 459 528 34,000  Level FlightAware
08:38AM 53.2940 2.1860 304° West 460 529 34,000  Level FlightAware
08:39AM 53.3470 2.0510 303° West 460 529 34,000  Level FlightAware
08:40AM 53.3940 1.9310 303° West 460 529 34,000  Level FlightAware
08:41AM 53.4420 1.8070 303° West 460 529 34,000  Level FlightAware
08:41AM 53.4632 1.7530 303° West 476 548 34,000  Level FlightAware UK
08:41AM 53.4900 1.6830 303° West 462 532 34,000  Level FlightAware
08:42AM 53.5330 1.5720 303° West 461 531 34,000 -180 Level FlightAware
08:42AM 53.5393 1.5546 303° West 480 552 33,900  Descending FlightAware UK
08:42AM 53.5740 1.4644 303° West 480 552 34,000 120 Climbing FlightAware UK
08:43AM 53.5870 1.4300 303° West 462 532 34,000  Level FlightAware
08:43AM 53.6088 1.3741 303° West 480 552 34,000  Level FlightAware UK
08:43AM 53.6350 1.3050 303° West 463 533 34,000  Level FlightAware
08:44AM 53.6637 1.2294 303° West 480 552 34,000  Level FlightAware UK
08:44AM 53.6790 1.1880 303° West 464 534 34,000  Level FlightAware
08:44AM 53.7120 1.1014 303° West 478 550 34,000  Level FlightAware UK
08:45AM 53.7340 1.0430 303° West 466 536 34,000  Level FlightAware
08:45AM 53.7601 0.9733 303° West 480 552 34,000  Level FlightAware UK
08:45AM 53.7760 0.9300 303° West 466 536 34,000  Level FlightAware
08:46AM 53.8280 0.7920 303° West 467 537 34,000  Level FlightAware
08:46AM 53.8498 0.7336 303° West 484 557 34,000  Level FlightAware UK
08:47AM 53.8740 0.6690 303° West 466 536 34,000  Level FlightAware
08:47AM 53.9179 0.5491 302° West 467 537 34,000  Level FlightAware ADS-B
08:48AM 53.9594 0.4372 302° West 482 555 34,000  Level FlightAware UK
08:48AM 53.9720 0.4030 302° West 468 539 34,000  Level FlightAware
08:49AM 53.9935 0.3438 302° West 482 555 34,000  Level FlightAware UK
08:49AM 54.0210 0.2720 302° West 467 537 34,000 -180 Level FlightAware
08:49AM 54.0534 0.2016 302° West 480 552 33,900  Descending FlightAware UK
08:50AM 54.0810 0.1480 302° West 464 534 34,000 60 Climbing FlightAware
08:50AM 54.1410 0.0370 313° West 464 534 34,000  Level FlightAware
08:51AM 54.2010 -0.0730 313° West 465 535 34,000  Level FlightAware
08:52AM 54.2650 -0.1940 312° West 466 536 34,000  Level FlightAware
08:52AM 54.3216 -0.3014 312° West 480 552 34,000  Level FlightAware UK
08:52AM 54.3220 -0.3030 312° West 467 537 34,000  Level FlightAware
08:53AM 54.3737 -0.4003 312° West 482 555 34,000  Level FlightAware UK
08:53AM 54.3770 -0.4080 312° West 468 539 34,000  Level FlightAware
08:54AM 54.4258 -0.4994 312° West 482 555 34,000  Level FlightAware UK
08:54AM 54.4440 -0.5340 312° West 468 539 34,000  Level FlightAware
08:55AM 54.5050 -0.6510 312° West 468 539 34,000  Level FlightAware
08:55AM 54.5292 -0.6978 312° West 482 555 34,000  Level FlightAware UK
08:55AM 54.5650 -0.7670 312° West 468 539 34,000  Level FlightAware
08:55AM 54.5896 -0.8144 312° West 482 555 34,000  Level FlightAware UK
08:56AM 54.6300 -0.8920 312° West 468 539 34,000  Level FlightAware
08:56AM 54.6754 -0.9809 312° West 484 557 34,000  Level FlightAware UK
08:57AM 54.6810 -0.9910 312° West 467 537 34,000  Level FlightAware
08:57AM 54.7351 -1.0977 312° West 484 557 34,000  Level FlightAware UK
08:57AM 54.7460 -1.1190 312° West 466 536 34,000  Level FlightAware
08:58AM 54.7778 -1.1816 312° West 482 555 34,000  Level FlightAware UK
08:58AM 54.8080 -1.2410 312° West 466 536 34,000  Level FlightAware
08:59AM 54.8640 -1.3510 312° West 464 534 34,000  Level FlightAware
08:59AM 54.9230 -1.4690 311° West 463 533 34,000  Level FlightAware
09:00AM 54.9840 -1.5900 311° West 461 531 34,000  Level FlightAware
09:01AM 55.0292 -1.6860 311° West 482 555 34,000  Level FlightAware UK
09:01AM 55.0280 -1.6830 311° West 462 532 34,000  Level FlightAware
09:01AM 55.0679 -1.8010 311° West 480 552 34,000  Level FlightAware UK
09:02AM 55.0830 -1.8510 311° West 464 534 34,000  Level FlightAware
09:02AM 55.1210 -1.9860 296° West 463 533 34,000  Level FlightAware
09:03AM 55.1450 -2.0700 297° West 463 533 34,000  Level FlightAware
09:03AM 55.1648 -2.1412 297° West 482 555 34,000  Level FlightAware UK
09:03AM 55.1880 -2.2220 297° West 462 532 34,000  Level FlightAware
09:04AM 55.2270 -2.3600 296° West 462 532 34,000  Level FlightAware
09:05AM 55.2660 -2.5130 294° West 462 532 34,000 -120 Level FlightAware
09:05AM 55.2922 -2.6530 294° West 480 552 33,900  Descending FlightAware UK
09:06AM 55.2930 -2.6570 294° West 462 532 34,000 120 Climbing FlightAware
09:06AM 55.3190 -2.7870 289° West 462 532 34,000  Level FlightAware
09:07AM 55.3470 -2.9275 289° West 480 552 34,000  Level FlightAware UK
09:07AM 55.3520 -2.9480 289° West 462 532 34,000  Level FlightAware
09:08AM 55.3840 -3.1040 290° West 462 532 34,000 -120 Level FlightAware
09:08AM 55.4080 -3.2227 290° West 478 550 33,900  Descending FlightAware UK
09:08AM 55.4100 -3.2320 290° West 463 533 34,000 60 Climbing FlightAware
09:09AM 55.4440 -3.4000 290° West 464 534 34,000  Level FlightAware
09:10AM 55.4672 -3.5204 290° West 478 550 34,000  Level FlightAware UK
09:10AM 55.4710 -3.5450 290° West 465 535 34,000  Level FlightAware
09:10AM 55.4872 -3.6283 290° West 478 550 34,000  Level FlightAware UK
09:10AM 55.5010 -3.7010 290° West 467 537 34,000  Level FlightAware
09:11AM 55.5300 -3.8550 288° West 468 539 34,000  Level FlightAware
09:11AM 55.5442 -3.9313 288° West 480 552 34,000  Level FlightAware UK
09:12AM 55.5560 -3.9930 288° West 469 540 34,000  Level FlightAware
09:12AM 55.5845 -4.1491 288° West 478 550 34,000  Level FlightAware UK
09:12AM 55.5840 -4.1450 288° West 470 541 34,000  Level FlightAware
09:13AM 55.6046 -4.2584 288° West 478 550 34,000  Level FlightAware UK
09:13AM 55.6140 -4.3080 288° West 471 542 34,000  Level FlightAware
09:14AM 55.6410 -4.4560 288° West 472 543 34,000  Level FlightAware
09:15AM 55.6700 -4.6180 288° West 474 545 34,000  Level FlightAware
09:15AM 55.6962 -4.7654 288° West 482 555 34,000  Level FlightAware UK
09:15AM 55.6970 -4.7700 288° West 475 547 34,000  Level FlightAware
09:16AM 55.7160 -4.8765 288° West 482 555 34,000  Level FlightAware UK
09:16AM 55.7220 -4.9110 288° West 474 545 34,000  Level FlightAware
09:17AM 55.7490 -5.0650 287° West 473 544 34,000  Level FlightAware
09:17AM 55.7745 -5.2095 287° West 484 557 34,000  Level FlightAware UK
09:17AM 55.7790 -5.2350 287° West 472 543 34,000  Level FlightAware
09:18AM 55.8050 -5.3850 287° West 471 542 34,000  Level FlightAware
09:18AM 55.8207 -5.4768 287° West 484 557 34,000  Level FlightAware UK
09:19AM 55.8310 -5.5370 287° West 471 542 34,000  Level FlightAware
09:19AM 55.8587 -5.6996 287° West 484 557 34,000  Level FlightAware UK
09:19AM 55.8590 -5.7010 287° West 471 542 34,000  Level FlightAware
09:20AM 55.8775 -5.8111 287° West 484 557 34,000  Level FlightAware UK
09:20AM 55.8840 -5.8520 287° West 471 542 34,000  Level FlightAware
09:21AM 55.9100 -6.0040 287° West 473 544 34,000  Level FlightAware
09:21AM 55.9111 -6.0121 287° West 482 555 34,000 -240 Level FlightAware UK
09:21AM 55.9296 -6.1240 287° West 482 555 33,900  Descending FlightAware UK
09:22AM 55.9370 -6.1680 287° West 474 545 34,000 120 Climbing FlightAware
09:22AM 55.9516 -6.2577 287° West 482 555 34,000  Level FlightAware UK
09:22AM 55.9650 -6.3400 287° West 473 544 34,000  Level FlightAware
09:23AM 55.9882 -6.4825 287° West 480 552 34,000  Level FlightAware UK
09:23AM 55.9910 -6.4970 287° West 474 545 34,000  Level FlightAware
09:23AM 56.0065 -6.5952 287° West 482 555 34,000  Level FlightAware UK
09:24AM 56.0150 -6.6470 287° West 475 547 34,000  Level FlightAware
09:24AM 56.0281 -6.7310 287° West 482 555 34,000  Level FlightAware UK
09:24AM 56.0390 -6.7990 287° West 476 548 34,000  Level FlightAware
09:25AM 56.0497 -6.8669 287° West 480 552 34,000  Level FlightAware UK
09:25AM 56.0620 -6.9470 287° West 476 548 34,000 -120 Level FlightAware
09:26AM 56.0855 -7.0942 287° West 482 555 33,900  Descending FlightAware UK
09:26AM 56.0890 -7.1190 287° West 477 549 34,000 180 Climbing FlightAware
09:26AM 56.1031 -7.2081 287° West 482 555 34,000  Level FlightAware UK
09:26AM 56.1130 -7.2710 287° West 478 550 34,000  Level FlightAware
09:27AM 56.1383 -7.4369 287° West 482 555 34,000  Level FlightAware UK
09:27AM 56.1400 -7.4460 287° West 479 551 34,000  Level FlightAware
09:28AM 56.1592 -7.5738 287° West 484 557 34,000  Level FlightAware UK
09:28AM 56.1630 -7.5960 287° West 477 549 34,000  Level FlightAware
09:28AM 56.1766 -7.6885 287° West 484 557 34,000  Level FlightAware UK
09:29AM 56.1860 -7.7520 287° West 476 548 34,000  Level FlightAware
09:29AM 56.2006 -7.8492 287° West 484 557 34,000  Level FlightAware UK
09:29AM 56.2110 -7.9210 287° West 476 548 34,000  Level FlightAware
09:30AM 56.2345 -8.0784 287° West 486 559 34,000  Level FlightAware UK
09:30AM 56.2370 -8.0930 287° West 474 545 34,000  Level FlightAware
09:30AM 56.2513 -8.1930 287° West 484 557 34,000  Level FlightAware UK
09:31AM 56.2590 -8.2430 287° West 474 545 34,000  Level FlightAware
09:31AM 56.2682 -8.3074 287° West 484 557 34,000  Level FlightAware UK
09:31AM 56.2800 -8.3910 287° West 473 544 34,000 -120 Level FlightAware
09:32AM 56.3009 -8.5363 287° West 482 555 33,900  Descending FlightAware UK
09:32AM 56.3030 -8.5540 287° West 474 545 34,000  Climbing FlightAware
09:32AM 56.3172 -8.6509 287° West 482 555 33,900  Descending FlightAware UK
09:33AM 56.3250 -8.7090 287° West 474 545 34,000 60 Climbing FlightAware
09:33AM 56.3500 -8.8830 285° West 474 545 34,000  Level FlightAware
09:34AM 56.3740 -9.0570 284° West 474 545 34,000  Level FlightAware
09:35AM 56.4010 -9.2580 284° West 473 544 34,000  Level FlightAware
09:36AM 56.4230 -9.4140 284° West 473 544 34,000  Level FlightAware
09:37AM 56.4510 -9.6260 284° West 471 542 34,000  Level FlightAware
09:37AM 56.4730 -9.7970 283° West 471 542 34,000  Level FlightAware
09:38AM 56.4940 -9.9530 284° West 470 541 34,000  Level FlightAware
09:39AM 56.5140 -10.1050 283° West 470 541 34,000  Level FlightAware
09:40AM 56.5360 -10.2780 283° West 470 541 34,000  Level FlightAware
09:40AM 56.5550 -10.4310 283° West 470 541 34,000  Level FlightAware
09:41AM 56.5760 -10.5960 283° West 469 540 34,000  Level FlightAware
09:42AM 56.5940 -10.7410 283° West 469 540 34,000  Level FlightAware
09:43AM 56.6200 -10.9550 283° West 471 542 34,000  Level FlightAware
09:43AM 56.6330 -11.0730 281° West 471 542 34,000  Level FlightAware
09:44AM 56.6510 -11.2280 282° West 471 542 34,000  Level FlightAware
09:45AM 56.6750 -11.4290 282° West 471 542 34,000  Level FlightAware
09:46AM 56.6900 -11.5540 282° West 471 542 34,000  Level FlightAware
09:46AM 56.7070 -11.7030 282° West 471 542 34,000  Level FlightAware
09:47AM 56.7210 -11.8280 282° West 471 542 34,000  Level FlightAware
09:48AM 56.7400 -11.9870 282° West 471 542 34,000  Level FlightAware
09:48AM 56.7530 -12.0990 282° West 471 542 34,000  Level FlightAware
09:49AM 56.7710 -12.2510 282° West 471 542 34,000  Level FlightAware
09:50AM 56.7850 -12.3740 282° West 471 542 34,000  Level FlightAware
09:51AM 56.8030 -12.5330 282° West 471 542 34,000  Level FlightAware
09:51AM 56.8170 -12.6480 283° West 471 542 34,000  Level FlightAware
09:52AM 56.8350 -12.8070 282° West 471 542 34,000 60 Level FlightAware
09:55AM 56.9221 -13.3717 286° West  Level Estimated
09:56AM 56.9553 -13.5925 286° West  Level Estimated
09:57AM 56.9882 -13.8136 285° West  Level Estimated
09:58AM 57.0206 -14.0351 285° West  Level Estimated
09:59AM 57.0535 -14.2625 285° West  Level Estimated
10:00AM 57.0859 -14.4903 285° West  Level Estimated
10:01AM 57.1178 -14.7176 285° West  Level Estimated
10:02AM 57.1492 -14.9448 284° West  Level Estimated
10:03AM 57.1802 -15.1725 284° West  Level Estimated
10:04AM 57.2108 -15.4004 284° West  Level Estimated
10:05AM 57.2410 -15.6288 284° West  Level Estimated
10:06AM 57.2708 -15.8576 284° West  Level Estimated
10:07AM 57.3002 -16.0867 283° West  Level Estimated
10:08AM 57.3291 -16.3161 283° West  Level Estimated
10:09AM 57.3576 -16.5460 283° West  Level Estimated
10:10AM 57.3857 -16.7762 283° West  Level Estimated
10:11AM 57.4134 -17.0067 283° West  Level Estimated
10:12AM 57.4407 -17.2376 282° West  Level Estimated
10:13AM 57.4675 -17.4688 282° West  Level Estimated
10:14AM 57.4939 -17.7004 282° West  Level Estimated
10:15AM 57.5199 -17.9323 282° West  Level Estimated
10:16AM 57.5454 -18.1645 282° West  Level Estimated
10:17AM 57.5706 -18.3970 281° West  Level Estimated
10:18AM 57.5953 -18.6299 281° West  Level Estimated
10:19AM 57.6196 -18.8631 281° West  Level Estimated
10:20AM 57.6434 -19.0966 281° West  Level Estimated
10:21AM 57.6669 -19.3304 281° West  Level Estimated
10:22AM 57.6898 -19.5645 281° West  Level Estimated
10:23AM 57.7124 -19.7988 280° West  Level Estimated
10:24AM 57.7345 -20.0335 280° West  Level Estimated
10:25AM 57.7562 -20.2685 280° West  Level Estimated
10:26AM 57.7775 -20.5037 280° West  Level Estimated
10:27AM 57.7983 -20.7392 280° West  Level Estimated
10:27AM 58.0000 -20.0000 295° West 484 557 37,000  Level ETMS Enhanced Traffic Management System
10:28AM 57.8187 -20.9750 279° West  Level Estimated
10:28AM 58.0000 -20.0000 295° West 484 557 37,000  Level ETMS Enhanced Traffic Management System
10:29AM 57.8386 -21.2111 279° West  Level Estimated
10:30AM 57.8581 -21.4474 279° West  Level Estimated
10:31AM 57.8772 -21.6839 279° West  Level Estimated
10:32AM 57.8958 -21.9207 279° West  Level Estimated
10:33AM 58.6110 -22.5670 293° West 484 557 37,000  Level FlightAware Transoceanic
10:34AM 58.6640 -22.8048 293° West 484 557 37,000  Level FlightAware Transoceanic
10:35AM 58.7165 -23.0432 293° West 484 557 37,000  Level FlightAware Transoceanic
10:36AM 58.7686 -23.2824 293° West 484 557 37,000  Level FlightAware Transoceanic
10:37AM 58.8203 -23.5223 292° West 484 557 37,000  Level FlightAware Transoceanic
10:38AM 58.8715 -23.7629 292° West 484 557 37,000  Level FlightAware Transoceanic
10:39AM 58.9222 -24.0042 292° West 484 557 37,000  Level FlightAware Transoceanic
10:40AM 58.9725 -24.2463 292° West 484 557 37,000  Level FlightAware Transoceanic
10:41AM 59.0224 -24.4890 292° West 484 557 37,000  Level FlightAware Transoceanic
10:42AM 59.0718 -24.7324 291° West 484 557 37,000  Level FlightAware Transoceanic
10:43AM 59.1207 -24.9765 291° West 484 557 37,000  Level FlightAware Transoceanic
10:44AM 59.1692 -25.2213 291° West 484 557 37,000  Level FlightAware Transoceanic
10:45AM 59.2172 -25.4669 291° West 484 557 37,000  Level FlightAware Transoceanic
10:46AM 59.2647 -25.7131 291° West 484 557 37,000  Level FlightAware Transoceanic
10:47AM 59.3118 -25.9599 290° West 484 557 37,000  Level FlightAware Transoceanic
10:48AM 59.3584 -26.2075 290° West 484 557 37,000  Level FlightAware Transoceanic
10:49AM 59.4046 -26.4558 290° West 484 557 37,000  Level FlightAware Transoceanic
10:50AM 59.4502 -26.7047 290° West 484 557 37,000  Level FlightAware Transoceanic
10:51AM 59.4954 -26.9543 290° West 484 557 37,000  Level FlightAware Transoceanic
10:52AM 59.5401 -27.2045 289° West 484 557 37,000  Level FlightAware Transoceanic
10:53AM 59.5844 -27.4554 289° West 484 557 37,000  Level FlightAware Transoceanic
10:54AM 59.6282 -27.7070 289° West 484 557 37,000  Level FlightAware Transoceanic
10:55AM 59.6714 -27.9592 289° West 484 557 37,000  Level FlightAware Transoceanic
10:56AM 59.7142 -28.2121 288° West 484 557 37,000  Level FlightAware Transoceanic
10:57AM 59.7565 -28.4656 288° West 484 557 37,000  Level FlightAware Transoceanic
10:58AM 59.7983 -28.7198 288° West 484 557 37,000  Level FlightAware Transoceanic
10:59AM 59.8397 -28.9746 288° West 484 557 37,000  Level FlightAware Transoceanic
11:00AM 59.8805 -29.2300 288° West 484 557 37,000  Level FlightAware Transoceanic
11:01AM 59.9208 -29.4860 287° West 484 557 37,000  Level FlightAware Transoceanic
11:02AM 59.9607 -29.7427 287° West 484 557 37,000  Level FlightAware Transoceanic
11:03AM 59.9979 -29.9860 287° West  Level FlightAware Approximate
11:04AM 60.0346 -30.2298 287° West  Level FlightAware Approximate
11:05AM 60.0304 -30.2164 286° West  Level FlightAware Approximate
11:06AM 60.0644 -30.4615 286° West  Level FlightAware Approximate
11:07AM 60.0979 -30.7071 285° West  Level FlightAware Approximate
11:08AM 60.1310 -30.9532 285° West  Level FlightAware Approximate
11:09AM 60.1636 -31.1998 285° West  Level FlightAware Approximate
11:10AM 60.1957 -31.4469 285° West  Level FlightAware Approximate
11:11AM 60.2274 -31.6945 285° West  Level FlightAware Approximate
11:12AM 60.2586 -31.9425 284° West  Level FlightAware Approximate
11:13AM 60.2893 -32.1910 284° West  Level FlightAware Approximate
11:14AM 60.3196 -32.4400 284° West  Level FlightAware Approximate
11:15AM 60.3495 -32.6894 284° West  Level FlightAware Approximate
11:16AM 60.3788 -32.9393 283° West  Level FlightAware Approximate
11:17AM 60.4077 -33.1897 283° West  Level FlightAware Approximate
11:18AM 60.4361 -33.4404 283° West  Level FlightAware Approximate
11:19AM 60.4641 -33.6917 283° West  Level FlightAware Approximate
11:20AM 60.4915 -33.9433 283° West  Level FlightAware Approximate
11:21AM 60.5185 -34.1954 282° West  Level FlightAware Approximate
11:22AM 60.5451 -34.4479 282° West  Level FlightAware Approximate
11:23AM 60.5711 -34.7008 282° West  Level FlightAware Approximate
11:24AM 60.5966 -34.9541 282° West  Level FlightAware Approximate
11:24AM 60.6833 -35.5333 281° West 510 587 37,000  Level Gander Center
11:25AM 60.6217 -35.2078 282° West  Level FlightAware Approximate
11:25AM 60.7000 -35.8000 277° West 510 587 37,000  Level Gander Center
11:26AM 60.6463 -35.4618 281° West  Level FlightAware Approximate
11:26AM 60.7333 -36.1000 283° West 510 587 37,000  Level Gander Center
11:27AM 60.6704 -35.7163 281° West  Level FlightAware Approximate
11:27AM 60.7500 -36.3667 277° West 520 598 37,000  Level Gander Center
11:28AM 60.6941 -35.9712 281° West  Level FlightAware Approximate
11:28AM 60.7833 -36.6667 283° West 520 598 37,000  Level Gander Center
11:29AM 60.7172 -36.2264 281° West  Level FlightAware Approximate
11:29AM 60.8167 -36.9333 284° West 520 598 37,000  Level Gander Center
11:30AM 60.8333 -37.2500 276° West 520 598 37,000  Level Gander Center
11:31AM 60.8500 -37.5167 277° West 520 598 37,000  Level Gander Center
11:32AM 60.8833 -37.8167 283° West 520 598 37,000  Level Gander Center
11:33AM 60.8833 -38.1000 270° West 520 598 37,000  Level Gander Center
11:34AM 60.9167 -38.4000 283° West 520 598 37,000  Level Gander Center
11:35AM 60.9333 -38.6667 277° West 520 598 37,000  Level Gander Center
11:36AM 60.9667 -38.9667 283° West 520 598 37,000  Level Gander Center
11:37AM 60.9833 -39.2500 277° West 520 598 37,000  Level Gander Center
11:38AM 61.0000 -39.5500 277° West 520 598 37,000  Level Gander Center
11:39AM 61.0167 -39.8333 277° West 520 598 37,000  Level Gander Center
11:40AM 61.0333 -40.1333 277° West 520 598 37,000  Level Gander Center
11:41AM 61.0500 -40.4167 277° West 520 598 37,000  Level Gander Center
11:42AM 61.0500 -40.7000 270° West 520 598 37,000  Level Gander Center
11:43AM 61.0667 -41.0000 277° West 520 598 37,000  Level Gander Center
11:44AM 61.0667 -41.2833 270° West 520 598 37,000  Level Gander Center
11:45AM 61.0833 -41.6000 276° West 520 598 37,000  Level Gander Center
11:46AM 61.0833 -41.8833 270° West 520 598 37,000  Level Gander Center
11:47AM 61.0833 -42.1667 270° West 520 598 37,000  Level Gander Center
11:48AM 61.1000 -42.4833 276° West 520 598 37,000  Level Gander Center
11:49AM 61.1000 -42.7500 270° West 520 598 37,000  Level Gander Center
11:50AM 61.1167 -43.0667 276° West 520 598 37,000  Level Gander Center
11:51AM 61.1167 -43.3500 270° West 520 598 37,000  Level Gander Center
11:52AM 61.1167 -43.6333 270° West 520 598 37,000  Level Gander Center
11:53AM 61.1167 -43.9500 270° West 520 598 37,000  Level Gander Center
11:54AM 61.1000 -44.2333 263° West 520 598 37,000  Level Gander Center
11:55AM 61.1167 -44.5167 277° West 510 587 37,000  Level Gander Center
11:56AM 61.1167 -44.8333 270° West 510 587 37,000  Level Gander Center
11:57AM 61.1000 -45.1167 263° West 520 598 37,000  Level Gander Center
11:58AM 61.1000 -45.4000 270° West 520 598 37,000  Level Gander Center
11:59AM 61.1000 -45.7167 270° West 510 587 37,000  Level Gander Center
12:00PM 61.1000 -46.0000 270° West 510 587 37,000  Level Gander Center
12:01PM 61.1000 -46.2833 270° West 510 587 37,000  Level Gander Center
12:02PM 61.1000 -46.5500 270° West 510 587 37,000  Level Gander Center
12:03PM 61.1000 -46.8667 270° West 510 587 37,000  Level Gander Center
12:04PM 61.1000 -47.1500 270° West 510 587 37,000  Level Gander Center
12:05PM 61.0833 -47.4333 263° West 510 587 37,000  Level Gander Center
12:06PM 61.0833 -47.7167 270° West 510 587 37,000  Level Gander Center
12:07PM 61.0833 -48.0333 270° West 510 587 37,000  Level Gander Center
12:08PM 61.0667 -48.3167 263° West 510 587 37,000  Level Gander Center
12:09PM 61.0667 -48.6000 270° West 500 575 37,000  Level Gander Center
12:10PM 61.0500 -48.8833 263° West 500 575 37,000  Level Gander Center
12:11PM 61.0500 -49.2000 270° West 500 575 37,000  Level Gander Center
12:12PM 61.0333 -49.4333 262° West 500 575 37,000  Level Gander Center
12:13PM 61.0167 -49.7167 263° West 510 587 37,000  Level Gander Center
12:14PM 61.0167 -50.0333 270° West 510 587 37,000  Level Gander Center
12:15PM 61.0000 -50.3167 263° West 510 587 37,000  Level Gander Center
12:16PM 60.9833 -50.6000 263° West 510 587 37,000  Level Gander Center
12:17PM 60.9667 -50.8833 263° West 510 587 37,000  Level Gander Center
12:18PM 60.9500 -51.1667 263° West 510 587 37,000  Level Gander Center
12:19PM 60.9167 -51.4500 257° West 510 587 37,000  Level Gander Center
12:20PM 60.9167 -51.7667 270° West 510 587 37,000  Level Gander Center
12:21PM 60.8833 -52.0500 257° West 510 587 37,000  Level Gander Center
12:21PM 60.8667 -52.1833 256° West 500 575 37,000  Level Gander Center
12:22PM 60.8500 -52.4667 263° West 500 575 37,000  Level Gander Center
12:23PM 60.8167 -52.7500 257° West 500 575 37,000  Level Gander Center
12:24PM 60.8167 -52.8833 270° West 500 575 37,000  Level Gander Center
12:25PM 60.8000 -53.1667 263° West 500 575 37,000  Level Gander Center
12:26PM 60.7667 -53.4500 257° West 510 587 37,000  Level Gander Center
12:26PM 60.7500 -53.5833 256° West 510 587 37,000  Level Gander Center
12:27PM 60.7333 -53.8667 263° West 510 587 37,000  Level Gander Center
12:28PM 60.7000 -54.1500 257° West 500 575 37,000  Level Gander Center
12:29PM 60.6833 -54.4167 263° West 500 575 37,000  Level Gander Center
12:30PM 60.6667 -54.5500 256° West 500 575 37,000  Level Gander Center
12:30PM 60.6667 -54.7000 270° West 500 575 37,000  Level Gander Center
12:31PM 60.6167 -54.9667 249° West 500 575 37,000  Level Gander Center
12:32PM 60.6000 -55.2500 263° West 510 587 37,000  Level Gander Center
12:33PM 60.5667 -55.5333 257° West 510 587 37,000  Level Gander Center
12:34PM 60.5500 -55.8333 264° West 510 587 37,000  Level Gander Center
12:35PM 60.5000 -56.1167 250° West 510 587 37,000  Level Gander Center
12:36PM 60.4833 -56.3833 263° West 500 575 37,000  Level Gander Center
12:37PM 60.4500 -56.6333 255° West 500 575 37,000  Level Gander Center
12:38PM 60.4167 -56.9000 256° West 500 575 37,000  Level Gander Center
12:39PM 60.3833 -57.1833 257° West 500 575 37,000  Level Gander Center
12:40PM 60.3500 -57.4500 256° West 490 564 37,000  Level Gander Center
12:41PM 60.3333 -57.6167 259° West 500 575 37,000  Level Gander Center
12:41PM 60.3167 -57.7167 251° West 500 575 37,000  Level Gander Center
12:42PM 60.3000 -58.0000 263° West 500 575 37,000  Level Gander Center
12:43PM 60.2667 -58.1667 248° West 500 575 37,000  Level Gander Center
12:44PM 60.2333 -58.4333 256° West 490 564 37,000  Level Gander Center
12:44PM 60.2167 -58.5333 251° West 490 564 37,000 60 Level Gander Center
12:45PM 60.2000 -58.8000 263° West 490 564 37,100 180 Climbing Gander Center
12:46PM 60.1667 -58.9500 246° West 490 564 37,300 360 Climbing Gander Center
12:47PM 60.1333 -59.2167 256° West 500 575 37,700 300 Climbing Gander Center
12:48PM 60.0833 -59.4833 249° West 500 575 38,000 120 Climbing Gander Center
12:49PM 60.0667 -59.7500 263° West 500 575 38,000  Level Gander Center
12:49PM 60.0500 -59.8500 252° West 500 575 38,000  Level Gander Center
12:50PM 60.0333 -60.0167 259° West 500 575 38,000  Level Gander Center
12:50PM 60.0000 -60.1167 236° Southwest 500 575 38,000  Level Gander Center
12:51PM 59.9833 -60.2833 259° West 500 575 38,000  Level Gander Center
12:52PM 59.9333 -60.5500 250° West 490 564 38,000  Level Gander Center
12:52PM 59.9167 -60.6500 252° West 490 564 38,000  Level Gander Center
12:53PM 59.8833 -60.8833 254° West 490 564 38,000  Level Gander Center
12:54PM 59.8333 -61.1500 250° West 490 564 38,000  Level Gander Center
12:55PM 59.7833 -61.3833 247° West 490 564 38,000  Level Gander Center
12:56PM 59.7500 -61.6500 256° West 490 564 38,000  Level Gander Center
12:57PM 59.7167 -61.9500 258° West 490 564 38,000  Level Gander Center
12:58PM 59.6667 -62.1667 246° West 480 552 38,000  Level Gander Center
12:59PM 59.6167 -62.4333 250° West 480 552 38,000  Level Gander Center
01:00PM 59.5667 -62.7000 250° West 480 552 38,000  Level Gander Center
01:01PM 59.5500 -62.8000 252° West 480 552 38,000  Level Gander Center
01:01PM 59.5333 -62.9167 254° West 480 552 38,000  Level Gander Center
01:02PM 59.4667 -63.1500 241° Southwest 480 552 38,000  Level Gander Center
01:03PM 59.4500 -63.3167 259° West 480 552 38,000  Level Gander Center
01:04PM 59.4167 -63.5333 253° West 480 552 38,000  Level Gander Center
01:04PM 59.3833 -63.6667 244° Southwest 480 552 38,000  Level Gander Center
01:04PM 59.3667 -63.6833 207° Southwest 480 552 38,000  Level Montreal Center
01:05PM 59.3500 -63.9000 262° West 480 552 38,000  Level Gander Center
01:06PM 59.2833 -64.1500 243° Southwest 480 552 38,000  Level Gander Center
01:06PM 59.2833 -64.1833 270° West 470 541 38,000  Level Montreal Center
01:07PM 59.2500 -64.3833 252° West 480 552 38,000  Level Gander Center
01:08PM 59.2167 -64.6333 255° West 480 552 38,000  Level Gander Center
01:09PM 59.1500 -64.8500 239° Southwest 470 541 38,000  Level Gander Center
01:10PM 59.1167 -65.1167 256° West 470 541 38,000  Level Gander Center
01:11PM 59.0500 -65.3667 243° Southwest 480 552 38,000  Level Gander Center
01:12PM 59.0000 -65.5833 246° West 480 552 38,000  Level Gander Center
01:13PM 58.9833 -65.7167 256° West 480 552 38,000  Level Gander Center
01:13PM 58.9667 -65.8333 255° West 480 552 38,000  Level Gander Center
01:14PM 58.9333 -65.9667 244° Southwest 480 552 38,000  Level Gander Center
01:15PM 58.8833 -66.1833 246° West 480 552 38,000  Level Gander Center
01:15PM 58.8500 -66.3167 244° Southwest 480 552 38,000  Level Montreal Center
01:16PM 58.8167 -66.5667 256° West 480 552 38,000  Level Gander Center
01:17PM 58.7500 -66.7833 239° Southwest 480 552 38,000  Level Gander Center
01:17PM 58.7500 -66.8000 270° West 480 552 38,000  Level Montreal Center
01:18PM 58.6667 -67.0167 234° Southwest 480 552 38,000  Level Montreal Center
01:19PM 58.6000 -67.2333 240° Southwest 480 552 38,000  Level Montreal Center
01:20PM 58.5167 -67.4167 229° Southwest 480 552 38,000  Level Montreal Center
01:21PM 58.4500 -67.6333 240° Southwest 480 552 38,000  Level Gander Center
01:22PM 58.3833 -67.8000 233° Southwest 480 552 38,000  Level Gander Center
01:22PM 58.3500 -67.8333 208° Southwest 480 552 38,000  Level Montreal Center
01:23PM 58.2667 -68.0167 229° Southwest 480 552 38,000  Level Montreal Center
01:24PM 58.1833 -68.2333 234° Southwest 470 541 38,000  Level Montreal Center
01:25PM 58.1167 -68.4000 233° Southwest 470 541 38,000  Level Montreal Center
01:26PM 58.0500 -68.5500 230° Southwest 470 541 38,000  Level Montreal Center
01:27PM 57.9667 -68.7500 232° Southwest 470 541 38,000  Level Montreal Center
01:28PM 57.8833 -68.9333 230° Southwest 470 541 38,000  Level Montreal Center
01:29PM 57.8000 -69.1333 232° Southwest 470 541 38,000  Level Montreal Center
01:30PM 57.7167 -69.3167 230° Southwest 470 541 38,000  Level Montreal Center
01:31PM 57.6333 -69.5167 232° Southwest 470 541 38,000  Level Montreal Center
01:32PM 57.5500 -69.6833 227° Southwest 470 541 38,000  Level Montreal Center
01:33PM 57.4667 -69.8833 232° Southwest 470 541 38,000  Level Montreal Center
01:34PM 57.3833 -70.0667 230° Southwest 470 541 38,000  Level Montreal Center
01:35PM 57.2833 -70.2667 227° Southwest 470 541 38,000  Level Montreal Center
01:36PM 57.2000 -70.4333 227° Southwest 470 541 38,000  Level Montreal Center
01:37PM 57.1167 -70.6333 233° Southwest 470 541 38,000  Level Montreal Center
01:38PM 57.0333 -70.8000 227° Southwest 470 541 38,000  Level Montreal Center
01:39PM 56.9500 -71.0000 233° Southwest 470 541 38,000  Level Montreal Center
01:40PM 56.8500 -71.1833 225° Southwest 470 541 38,000  Level Montreal Center
01:41PM 56.7667 -71.3500 228° Southwest 470 541 38,000  Level Montreal Center
01:42PM 56.6833 -71.5500 233° Southwest 470 541 38,000  Level Montreal Center
01:43PM 56.6000 -71.7167 228° Southwest 470 541 38,000  Level Montreal Center
01:44PM 56.5000 -71.9000 225° Southwest 480 552 38,000  Level Montreal Center
01:45PM 56.4333 -72.1000 239° Southwest 470 541 38,000  Level Montreal Center
01:46PM 56.3333 -72.2500 220° Southwest 470 541 38,000  Level Montreal Center
01:47PM 56.2333 -72.4167 223° Southwest 470 541 38,000  Level Montreal Center
01:48PM 56.1500 -72.6000 231° Southwest 470 541 38,000  Level Montreal Center
01:49PM 56.0667 -72.7667 228° Southwest 470 541 38,000  Level Montreal Center
01:50PM 55.9667 -72.9500 226° Southwest 480 552 38,000  Level Montreal Center
01:51PM 55.8833 -73.1333 231° Southwest 470 541 38,000  Level Montreal Center
01:52PM 55.7833 -73.3000 223° Southwest 470 541 38,000  Level Montreal Center
01:53PM 55.7000 -73.4833 231° Southwest 470 541 38,000  Level Montreal Center
01:54PM 55.6000 -73.6333 220° Southwest 470 541 38,000  Level Montreal Center
01:55PM 55.5333 -73.8167 237° Southwest 470 541 38,000  Level Montreal Center
01:56PM 55.4333 -73.9667 220° Southwest 470 541 38,000  Level Montreal Center
01:57PM 55.3500 -74.1500 231° Southwest 470 541 38,000  Level Montreal Center
01:58PM 55.2500 -74.3167 224° Southwest 470 541 38,000  Level Montreal Center
01:59PM 55.1667 -74.4833 229° Southwest 470 541 38,000  Level Montreal Center
02:00PM 55.0667 -74.6333 221° Southwest 470 541 38,000  Level Montreal Center
02:01PM 54.9667 -74.8167 227° Southwest 480 552 38,000  Level Montreal Center
02:02PM 54.8667 -74.9667 221° Southwest 470 541 38,000  Level Montreal Center
02:03PM 54.7833 -75.1500 232° Southwest 470 541 38,000  Level Montreal Center
02:04PM 54.6833 -75.3000 221° Southwest 470 541 38,000  Level Montreal Center
02:05PM 54.5833 -75.4167 214° Southwest 470 541 38,000  Level Montreal Center
02:06PM 54.4833 -75.5500 218° Southwest 470 541 38,000  Level Montreal Center
02:07PM 54.3833 -75.7000 221° Southwest 470 541 38,000  Level Montreal Center
02:08PM 54.2667 -75.8500 217° Southwest 470 541 38,000  Level Montreal Center
02:09PM 54.1667 -75.9667 214° Southwest 470 541 38,000  Level Montreal Center
02:10PM 54.0667 -76.1000 218° Southwest 470 541 38,000  Level Montreal Center
02:11PM 53.9667 -76.2500 221° Southwest 460 529 38,000  Level Montreal Center
02:12PM 53.8667 -76.3833 218° Southwest 470 541 38,000  Level Montreal Center
02:13PM 53.7500 -76.5333 217° Southwest 470 541 38,000  Level Montreal Center
02:14PM 53.6333 -76.6500 211° Southwest 460 529 38,000  Level Montreal Center
02:15PM 53.5333 -76.7833 218° Southwest 470 541 38,000  Level Montreal Center
02:16PM 53.4333 -76.9167 218° Southwest 470 541 38,000  Level Montreal Center
02:17PM 53.3333 -77.0667 222° Southwest 470 541 38,000  Level Montreal Center
02:18PM 53.2333 -77.1667 211° Southwest 460 529 38,000  Level Montreal Center
02:19PM 53.1333 -77.3167 222° Southwest 470 541 38,000  Level Montreal Center
02:20PM 53.0333 -77.4500 219° Southwest 470 541 38,000  Level Montreal Center
02:21PM 52.9333 -77.5500 211° Southwest 460 529 38,000  Level Montreal Center
02:22PM 52.8167 -77.6833 215° Southwest 460 529 38,000  Level Montreal Center
02:23PM 52.7167 -77.8333 222° Southwest 460 529 38,000  Level Montreal Center
02:24PM 52.6167 -77.9667 219° Southwest 460 529 38,000  Level Montreal Center
02:25PM 52.5167 -78.0667 211° Southwest 460 529 38,000  Level Montreal Center
02:26PM 52.4167 -78.2000 219° Southwest 460 529 38,000  Level Montreal Center
02:27PM 52.3000 -78.3333 215° Southwest 460 529 38,000  Level Montreal Center
02:28PM 52.1833 -78.4667 215° Southwest 460 529 38,000  Level Montreal Center
02:29PM 52.0833 -78.5667 212° Southwest 460 529 38,000  Level Montreal Center
02:30PM 51.9833 -78.7000 219° Southwest 460 529 38,000  Level Montreal Center
02:31PM 51.8833 -78.8333 219° Southwest 460 529 38,000  Level Montreal Center
02:32PM 51.7667 -78.9333 208° Southwest 460 529 38,000  Level Montreal Center
02:33PM 51.6667 -79.0667 220° Southwest 460 529 38,000  Level Montreal Center
02:34PM 51.5667 -79.1833 216° Southwest 460 529 38,000  Level Montreal Center
02:35PM 51.4667 -79.2833 212° Southwest 460 529 38,000  Level Montreal Center
02:36PM 51.3500 -79.4167 216° Southwest 460 529 38,000  Level Montreal Center
02:37PM 51.2500 -79.5500 220° Southwest 460 529 38,000  Level Montreal Center
02:38PM 51.1833 -79.7000 235° Southwest 450 518 38,000  Level Montreal Center
02:39PM 51.1333 -79.8833 247° West 460 529 38,000  Level Montreal Center
02:40PM 51.0833 -80.0833 248° West 460 529 38,000  Level Montreal Center
02:41PM 51.0333 -80.2833 248° West 460 529 38,000  Level Montreal Center
02:42PM 50.9833 -80.4500 245° Southwest 460 529 38,000  Level Montreal Center
02:43PM 50.9333 -80.6333 247° West 460 529 38,000  Level Montreal Center
02:43PM 50.9333 -80.6333 247° West 470 541 38,000  Level Toronto Center
02:44PM 50.8833 -80.8167 247° West 470 541 38,000  Level Toronto Center
02:45PM 50.8333 -81.0000 247° West 470 541 38,000  Level Toronto Center
02:46PM 50.7833 -81.2000 248° West 470 541 38,000  Level Toronto Center
02:47PM 50.7500 -81.3833 254° West 470 541 38,000  Level Toronto Center
02:48PM 50.7000 -81.5667 247° West 470 541 38,000  Level Toronto Center
02:49PM 50.6500 -81.7500 247° West 470 541 38,000  Level Toronto Center
02:50PM 50.6000 -81.9333 247° West 470 541 38,000  Level Toronto Center
02:51PM 50.5500 -82.1500 250° West 470 541 38,000  Level Toronto Center
02:52PM 50.5000 -82.3167 245° Southwest 470 541 38,000  Level Toronto Center
02:53PM 50.4667 -82.5333 256° West 470 541 38,000  Level Toronto Center
02:54PM 50.4167 -82.7333 249° West 460 529 38,000  Level Montreal Center
02:55PM 50.3667 -82.9333 249° West 460 529 38,000  Level Montreal Center
02:56PM 50.3167 -83.1167 247° West 470 541 38,000  Level Montreal Center
02:57PM 50.2833 -83.3167 255° West 470 541 38,000  Level Montreal Center
02:58PM 50.2333 -83.5167 249° West 470 541 38,000  Level Montreal Center
02:59PM 50.1833 -83.7000 247° West 470 541 38,000  Level Montreal Center
03:00PM 50.1333 -83.9000 249° West 470 541 38,000  Level Montreal Center
03:01PM 50.0667 -84.0500 235° Southwest 470 541 38,000  Level Montreal Center
03:02PM 49.9333 -84.1333 202° Southwest 470 541 38,000  Level Montreal Center
03:03PM 49.8000 -84.1667 189° South 480 552 38,000  Level Montreal Center
03:04PM 49.6833 -84.1667 180° South 480 552 38,000  Level Montreal Center
03:05PM 49.5333 -84.1667 180° South 480 552 38,000  Level Montreal Center
03:06PM 49.4167 -84.1667 180° South 480 552 38,000  Level Montreal Center
03:07PM 49.2667 -84.2000 188° South 480 552 38,000  Level Montreal Center
03:08PM 49.1333 -84.2000 180° South 480 552 38,000  Level Montreal Center
03:09PM 49.0000 -84.2000 180° South 480 552 38,000  Level Montreal Center
03:10PM 48.8667 -84.2000 180° South 480 552 38,000  Level Montreal Center
03:11PM 48.7333 -84.2000 180° South 480 552 38,000  Level Montreal Center
03:12PM 48.6000 -84.2167 185° South 470 541 38,000  Level Montreal Center
03:13PM 48.4833 -84.2333 185° South 460 529 38,000  Level Montreal Center
03:14PM 48.3333 -84.2500 184° South 460 529 38,000  Level Montreal Center
03:15PM 48.2167 -84.2500 180° South 460 529 38,000  Level Montreal Center
03:16PM 48.0833 -84.2500 180° South 450 518 38,000  Level Montreal Center
03:17PM 47.9667 -84.2500 180° South 450 518 38,000  Level Montreal Center
03:18PM 47.8333 -84.2667 185° South 450 518 38,000  Level Montreal Center
03:19PM 47.7167 -84.2667 180° South 450 518 38,000  Level Montreal Center
03:20PM 47.6000 -84.2667 180° South 450 518 38,000  Level Montreal Center
03:21PM 47.4667 -84.3000 190° South 450 518 38,000  Level Montreal Center
03:22PM 47.3333 -84.3000 180° South 450 518 38,000  Level Montreal Center
03:23PM 47.2000 -84.3000 180° South 450 518 38,000  Level Montreal Center
03:24PM 47.0833 -84.3167 186° South 450 518 38,000  Level Montreal Center
03:25PM 46.9667 -84.3167 180° South 450 518 38,000  Level Montreal Center
03:26PM 46.8333 -84.2833 170° South 450 518 38,000  Level Toronto Center
03:27PM 46.7000 -84.3000 185° South 460 529 38,000  Level Toronto Center
03:28PM 46.5833 -84.2833 174° South 460 529 38,000  Level Toronto Center
03:29PM 46.4500 -84.3000 185° South 460 529 38,000  Level Toronto Center
03:30PM 46.3333 -84.3500 196° South 460 529 38,000  Level Toronto Center
03:36PM 45.6090 -84.5900 196° South 435 501 38,000  Level FlightAware
03:37PM 45.5240 -84.6190 193° South 434 499 38,000  Level FlightAware
03:37PM 45.4560 -84.6420 193° South 433 498 38,000 -180 Level FlightAware
03:38PM 45.3670 -84.6720 193° South 430 495 37,800 -720 Descending FlightAware
03:40PM 45.1810 -84.7330 193° South 439 505 36,300 -1,080 Descending FlightAware
03:40PM 45.0870 -84.7650 194° South 434 499 35,300 -1,320 Descending FlightAware
03:41PM 45.0110 -84.7900 193° South 438 504 34,600 -960 Descending FlightAware
03:42PM 44.9380 -84.8140 193° South 437 503 34,100 -960 Descending FlightAware
03:43PM 44.8350 -84.8480 193° South 440 506 33,200 -1,020 Descending FlightAware
03:43PM 44.7540 -84.8750 193° South 441 507 32,600 -900 Descending FlightAware
03:44PM 44.6740 -84.9010 193° South 443 510 32,000 -480 Descending FlightAware
03:45PM 44.5890 -84.9280 193° South 445 512 32,000  Level FlightAware
03:45PM 44.5030 -84.9560 193° South 445 512 32,000  Level FlightAware
03:46PM 44.4230 -84.9820 193° South 446 513 32,000  Level FlightAware
03:47PM 44.3360 -85.0100 193° South 448 516 32,000  Level FlightAware
03:47PM 44.2490 -85.0380 193° South 446 513 32,000  Level FlightAware
03:48PM 44.1630 -85.0660 193° South 445 512 32,000  Level FlightAware
03:49PM 44.0890 -85.0900 193° South 443 510 32,000  Level FlightAware
03:50PM 43.9960 -85.1200 193° South 442 509 32,000  Level FlightAware
03:50PM 43.9150 -85.1450 193° South 441 507 32,000  Level FlightAware
03:51PM 43.8260 -85.1730 193° South 441 507 32,000  Level FlightAware
03:52PM 43.7490 -85.1980 193° South 441 507 32,000  Level FlightAware
03:52PM 43.6620 -85.2250 193° South 443 510 32,000  Level FlightAware
03:53PM 43.5820 -85.2510 193° South 444 511 32,000  Level FlightAware
03:54PM 43.4930 -85.2780 192° South 445 512 32,000  Level FlightAware
03:54PM 43.4180 -85.3050 195° South 439 505 32,000 -480 Level FlightAware
03:55PM 43.3370 -85.3590 206° Southwest 413 475 31,400 -1,440 Descending FlightAware
03:56PM 43.2770 -85.4240 218° Southwest 413 475 30,000 -1,680 Descending FlightAware
03:57PM 43.2110 -85.4960 218° Southwest 427 491 29,100 -1,320 Descending FlightAware
03:57PM 43.1480 -85.5640 218° Southwest 427 491 28,200 -1,200 Descending FlightAware
03:58PM 43.1040 -85.6100 217° Southwest 423 487 27,600 -1,260 Descending FlightAware
03:59PM 43.0170 -85.7020 218° Southwest 407 468 26,400 -1,440 Descending FlightAware
03:59PM 42.9550 -85.7680 218° Southwest 396 456 25,500 -1,200 Descending FlightAware
04:00PM 42.9010 -85.8260 218° Southwest 389 448 24,800 -1,200 Descending FlightAware
04:01PM 42.8330 -85.8970 217° Southwest 382 440 23,800 -1,260 Descending FlightAware
04:01PM 42.7770 -85.9560 218° Southwest 379 436 23,000 -1,320 Descending FlightAware
04:02PM 42.7340 -86.0250 230° Southwest 365 420 22,100 -1,440 Descending FlightAware
04:03PM 42.7080 -86.1200 250° West 359 413 21,000 -1,500 Descending FlightAware
04:03PM 42.6880 -86.2010 251° West 354 407 20,100 -1,380 Descending FlightAware
04:04PM 42.6640 -86.2960 251° West 348 400 19,100 -1,380 Descending FlightAware
04:05PM 42.6430 -86.3790 251° West 345 397 18,200 -1,440 Descending FlightAware
04:06PM 42.6200 -86.4690 251° West 338 389 17,100 -1,380 Descending FlightAware
04:06PM 42.6010 -86.5450 251° West 338 389 16,300 -1,320 Descending FlightAware
04:07PM 42.5800 -86.6280 251° West 339 390 15,400 -1,380 Descending FlightAware
04:08PM 42.5570 -86.7170 251° West 342 394 14,400 -1,440 Descending FlightAware
04:08PM 42.5340 -86.8070 251° West 344 396 13,300 -1,500 Descending FlightAware
04:09PM 42.5130 -86.8910 251° West 335 386 12,300 -1,620 Descending FlightAware
04:10PM 42.4920 -86.9710 250° West 329 379 11,100 -1,560 Descending FlightAware
04:10PM 42.4710 -87.0510 250° West 315 362 10,200 -960 Descending FlightAware
04:11PM 42.4520 -87.1240 251° West 284 327 9,800 -780 Descending FlightAware
04:11PM 42.4460 -87.1460 250° West 281 323 9,500 -1,080 Descending FlightAware
04:12PM 42.4320 -87.1970 250° West 275 316 9,000 -540 Descending FlightAware
04:12PM 42.4190 -87.2430 249° West 277 319 9,000  Level FlightAware
04:13PM 42.4060 -87.2900 249° West 277 319 9,000  Level FlightAware
04:13PM 42.3950 -87.3290 249° West 276 318 9,000 -120 Level FlightAware
04:14PM 42.3830 -87.3750 251° West 274 315 8,900 -660 Descending FlightAware
04:14PM 42.3680 -87.4220 247° West 275 316 8,400 -1,140 Descending FlightAware
04:14PM 42.3620 -87.4420 248° West 274 315 8,100 -1,440 Descending FlightAware
04:15PM 42.3490 -87.4880 249° West 272 313 7,400 -1,260 Descending FlightAware
04:15PM 42.3320 -87.5230 237° Southwest 271 312 7,000 -840 Descending FlightAware
04:16PM 42.3060 -87.5530 220° Southwest 266 306 6,700 -840 Descending FlightAware
04:16PM 42.2900 -87.5720 221° Southwest 267 307 6,400 -960 Descending FlightAware
04:17PM 42.2630 -87.6020 219° Southwest 268 308 6,000 -1,020 Descending FlightAware
04:17PM 42.2380 -87.6300 220° Southwest 267 307 5,500 -1,020 Descending FlightAware
04:17PM 42.2120 -87.6590 220° Southwest 265 305 5,100 -540 Descending FlightAware
04:18PM 42.1830 -87.6910 219° Southwest 264 304 5,000 -240 Descending FlightAware
04:18PM 42.1680 -87.7080 220° Southwest 258 297 4,900 -780 Descending FlightAware
04:19PM 42.1340 -87.7450 219° Southwest 245 282 4,300 -1,440 Descending FlightAware
04:19PM 42.1070 -87.7750 220° Southwest 230 265 3,500 -1,500 Descending FlightAware
04:20PM 42.0860 -87.7990 220° Southwest 216 249 2,900 -1,140 Descending FlightAware
04:20PM 42.0660 -87.8210 219° Southwest 189 217 2,500 -1,080 Descending FlightAware
04:21PM 42.0480 -87.8410 220° Southwest 169 194 1,900 -1,020 Descending FlightAware
04:21PM 42.0330 -87.8580 220° Southwest 151 174 1,600 -780 Descending FlightAware
04:22PM 42.0180 -87.8740 218° Southwest 145 167 1,200 -900 Descending FlightAware
04:22PM 42.0030 -87.8900 218° Southwest 148 170 800 -840 Descending FlightAware
04:22PM 42.0000 -87.8940 225° Southwest 149 171 700 -600 Descending FlightAware
04:23PM 41.9860 -87.9080 217° Southwest 29 33 -1,320 Descending FlightAware
04:23PM 41.9850 -87.9090 217° Southwest 22 25  Level FlightAware
04:23PM 41.9840 -87.9090 180° South 16 18  Level FlightAware
04:24PM 41.9830 -87.9080 143° Southeast 18 21  Level FlightAware